createdAt,value
2023-05-22T00:03:37.292Z,12.60
2023-05-22T00:08:40.148Z,12.40
2023-05-22T00:13:42.884Z,12.30
2023-05-22T00:18:45.792Z,12.10
2023-05-22T00:23:48.576Z,12.10
2023-05-22T00:28:51.364Z,11.90
2023-05-22T00:33:54.320Z,11.60
2023-05-22T00:38:57.252Z,11.80
2023-05-22T00:44:00.767Z,11.80
2023-05-22T00:49:03.514Z,11.60
2023-05-22T00:54:06.645Z,11.00
2023-05-22T00:59:09.555Z,10.70
2023-05-22T01:04:13.460Z,10.40
2023-05-22T01:09:20.142Z,10.10
2023-05-22T01:14:52.997Z,10.10
2023-05-22T01:20:24.972Z,10.20
2023-05-22T01:25:30.477Z,10.50
2023-05-22T01:30:55.378Z,10.90
2023-05-22T01:36:00.398Z,11.00
2023-05-22T01:41:03.493Z,11.00
2023-05-22T01:46:07.176Z,11.00
2023-05-22T01:51:20.658Z,11.00
2023-05-22T01:56:51.336Z,11.10
2023-05-22T02:01:55.642Z,11.00
2023-05-22T02:07:01.303Z,11.00
2023-05-22T02:12:04.657Z,11.00
2023-05-22T02:17:07.977Z,11.10
2023-05-22T02:22:13.917Z,11.10
2023-05-22T02:27:17.554Z,11.10
2023-05-22T02:32:20.601Z,11.10
2023-05-22T02:37:23.951Z,11.10
2023-05-22T02:42:27.036Z,11.10
2023-05-22T02:47:30.224Z,11.10
2023-05-22T02:52:33.001Z,11.00
2023-05-22T02:57:36.196Z,11.00
2023-05-22T03:02:39.551Z,11.00
2023-05-22T03:07:43.019Z,10.90
2023-05-22T03:12:46.263Z,10.80
2023-05-22T03:17:49.479Z,10.80
2023-05-22T03:22:52.828Z,10.90
2023-05-22T03:27:55.825Z,10.90
2023-05-22T03:32:59.893Z,10.90
2023-05-22T03:38:04.014Z,10.90
2023-05-22T03:43:06.845Z,10.90
2023-05-22T03:48:11.004Z,10.70
2023-05-22T03:53:13.731Z,10.50
2023-05-22T03:58:16.623Z,10.50
2023-05-22T04:03:20.503Z,10.30
2023-05-22T04:08:23.734Z,10.30
2023-05-22T04:13:27.500Z,10.50
2023-05-22T04:18:30.260Z,10.80
2023-05-22T04:23:33.167Z,11.10
2023-05-22T04:28:36.120Z,11.30
2023-05-22T04:33:40.352Z,11.50
2023-05-22T04:38:45.166Z,11.70
2023-05-22T04:43:49.244Z,12.00
2023-05-22T04:48:51.872Z,12.20
2023-05-22T04:53:56.052Z,12.40
2023-05-22T04:59:00.343Z,12.70
2023-05-22T05:04:03.986Z,13.00
2023-05-22T05:09:07.589Z,13.20
2023-05-22T05:14:11.621Z,13.40
2023-05-22T05:19:15.758Z,13.80
2023-05-22T05:24:19.213Z,14.20
2023-05-22T05:29:23.572Z,14.70
2023-05-22T05:34:41.032Z,14.90
2023-05-22T05:40:07.587Z,15.20
2023-05-22T05:45:13.877Z,15.30
2023-05-22T05:50:18.452Z,15.50
2023-05-22T05:55:21.622Z,16.00
2023-05-22T06:00:24.970Z,16.40
2023-05-22T06:05:29.738Z,16.40
2023-05-22T06:10:44.272Z,16.40
2023-05-22T06:15:49.475Z,17.10
2023-05-22T06:20:53.542Z,17.30
2023-05-22T06:25:56.337Z,17.80
2023-05-22T06:31:00.364Z,18.10
2023-05-22T06:36:05.075Z,18.30
2023-05-22T06:41:08.351Z,18.20
2023-05-22T06:46:11.781Z,18.70
2023-05-22T06:51:25.195Z,19.20
2023-05-22T06:56:34.236Z,19.30
2023-05-22T07:01:44.550Z,19.50
2023-05-22T07:06:51.068Z,19.80
2023-05-22T07:11:54.714Z,19.60
2023-05-22T07:16:57.622Z,20.30
2023-05-22T07:22:06.112Z,20.70
2023-05-22T07:27:11.804Z,20.80
2023-05-22T07:32:15.486Z,21.30
2023-05-22T07:37:19.503Z,21.40
2023-05-22T07:42:26.402Z,21.40
2023-05-22T07:47:30.954Z,21.70
2023-05-22T07:52:34.915Z,21.70
2023-05-22T07:57:39.274Z,21.70
2023-05-22T08:02:50.888Z,21.50
2023-05-22T08:07:53.957Z,21.40
2023-05-22T08:12:58.817Z,21.40
2023-05-22T08:18:02.391Z,22.20
2023-05-22T08:23:05.230Z,22.50
2023-05-22T08:28:07.931Z,21.40
2023-05-22T08:33:12.250Z,22.10
2023-05-22T08:38:16.567Z,22.90
2023-05-22T08:43:21.763Z,23.00
2023-05-22T08:48:28.394Z,22.70
2023-05-22T08:53:36.089Z,23.50
2023-05-22T08:58:39.015Z,22.90
2023-05-22T09:03:41.951Z,23.20
2023-05-22T09:08:44.871Z,23.10
2023-05-22T09:13:49.367Z,23.20
2023-05-22T09:18:52.294Z,24.50
2023-05-22T09:23:54.989Z,24.50
2023-05-22T09:29:00.303Z,24.00
2023-05-22T09:34:04.904Z,23.70
2023-05-22T09:39:08.203Z,23.80
2023-05-22T09:44:15.474Z,24.80
2023-05-22T09:49:18.830Z,24.00
2023-05-22T09:54:22.267Z,24.20
2023-05-22T09:59:33.355Z,24.00
2023-05-22T10:04:38.219Z,24.30
2023-05-22T10:09:42.838Z,24.60
2023-05-22T10:14:46.375Z,24.60
2023-05-22T10:19:50.066Z,24.30
2023-05-22T10:24:54.935Z,23.80
2023-05-22T10:30:16.366Z,24.00
2023-05-22T10:36:45.999Z,25.00
2023-05-22T10:41:50.343Z,24.80
2023-05-22T10:46:53.137Z,24.60
2023-05-22T10:51:57.553Z,25.90
2023-05-22T10:57:11.874Z,25.40
2023-05-22T11:02:22.641Z,25.60
2023-05-22T11:07:25.973Z,26.20
2023-05-22T11:12:30.668Z,26.30
2023-05-22T11:17:46.981Z,26.60
2023-05-22T11:23:02.530Z,25.70
2023-05-22T11:28:06.388Z,27.10
2023-05-22T11:33:10.036Z,26.90
2023-05-22T11:38:14.581Z,26.70
2023-05-22T11:43:30.277Z,27.30
2023-05-22T11:48:33.120Z,26.50
2023-05-22T11:53:36.770Z,26.80
2023-05-22T11:58:39.554Z,27.00
2023-05-22T12:03:42.467Z,27.40
2023-05-22T12:08:45.770Z,26.90
2023-05-22T12:13:52.364Z,25.70
2023-05-22T12:18:55.109Z,26.00
2023-05-22T12:23:58.366Z,26.20
2023-05-22T12:29:01.957Z,26.40
2023-05-22T12:34:08.101Z,26.00
2023-05-22T12:39:12.584Z,26.90
2023-05-22T12:44:17.112Z,26.80
2023-05-22T12:49:19.974Z,25.80
2023-05-22T12:54:22.765Z,26.80
2023-05-22T12:59:25.832Z,26.10
2023-05-22T13:04:29.629Z,26.50
2023-05-22T13:09:32.575Z,26.70
2023-05-22T13:14:35.542Z,25.90
2023-05-22T13:19:38.750Z,26.80
2023-05-22T13:24:41.605Z,27.20
2023-05-22T13:29:45.530Z,27.50
2023-05-22T13:34:48.475Z,26.60
2023-05-22T13:39:51.746Z,25.70
2023-05-22T13:44:54.737Z,26.00
2023-05-22T13:49:57.487Z,25.70
2023-05-22T13:55:01.225Z,25.80
2023-05-22T14:00:05.063Z,25.40
2023-05-22T14:05:09.090Z,25.50
2023-05-22T14:10:12.176Z,25.30
2023-05-22T14:15:16.640Z,24.70
2023-05-22T14:20:19.612Z,24.60
2023-05-22T14:25:22.754Z,24.50
2023-05-22T14:30:25.749Z,24.50
2023-05-22T14:35:28.536Z,24.00
2023-05-22T14:40:31.277Z,23.90
2023-05-22T14:45:34.486Z,23.90
2023-05-22T14:50:37.393Z,23.50
2023-05-22T14:55:40.478Z,23.60
2023-05-22T15:00:44.363Z,23.50
2023-05-22T15:05:48.605Z,23.90
2023-05-22T15:10:51.446Z,24.20
2023-05-22T15:15:54.282Z,24.70
2023-05-22T15:20:57.270Z,24.20
2023-05-22T15:26:00.069Z,25.20
2023-05-22T15:31:03.549Z,25.00
2023-05-22T15:36:07.299Z,24.90
2023-05-22T15:41:10.178Z,24.00
2023-05-22T15:46:14.899Z,24.10
2023-05-22T15:51:17.771Z,23.40
2023-05-22T15:56:21.846Z,23.60
2023-05-22T16:01:24.644Z,23.70
2023-05-22T16:06:28.797Z,22.80
2023-05-22T16:11:31.587Z,22.90
2023-05-22T16:16:34.494Z,22.30
2023-05-22T16:21:37.533Z,22.40
2023-05-22T16:26:40.337Z,22.60
2023-05-22T16:31:43.509Z,22.60
2023-05-22T16:36:46.379Z,22.20
2023-05-22T16:41:50.155Z,22.00
2023-05-22T16:46:54.761Z,21.90
2023-05-22T16:51:57.891Z,21.60
2023-05-22T16:57:00.709Z,21.30
2023-05-22T17:02:04.126Z,21.20
2023-05-22T17:07:06.869Z,21.00
2023-05-22T17:12:09.647Z,20.90
2023-05-22T17:17:12.514Z,20.90
2023-05-22T17:22:15.333Z,20.60
2023-05-22T17:27:28.039Z,20.50
2023-05-22T17:32:38.756Z,20.40
2023-05-22T17:37:42.155Z,20.20
2023-05-22T17:42:44.925Z,20.00
2023-05-22T17:47:47.987Z,19.90
2023-05-22T17:52:51.063Z,19.70
2023-05-22T17:57:53.927Z,19.40
2023-05-22T18:02:57.061Z,19.20
2023-05-22T18:08:00.761Z,18.80
2023-05-22T18:13:03.816Z,18.50
2023-05-22T18:18:06.686Z,18.20
2023-05-22T18:23:09.798Z,17.80
2023-05-22T18:28:12.668Z,17.60
2023-05-22T18:33:16.598Z,17.40
2023-05-22T18:38:19.425Z,17.00
2023-05-22T18:43:27.907Z,16.90
2023-05-22T18:48:31.314Z,16.80
2023-05-22T18:53:34.285Z,16.50
2023-05-22T18:58:41.693Z,16.20
2023-05-22T19:03:44.662Z,16.20
2023-05-22T19:08:47.738Z,16.10
2023-05-22T19:13:50.870Z,16.00
2023-05-22T19:18:53.799Z,16.00
2023-05-22T19:23:56.692Z,16.00
2023-05-22T19:28:59.797Z,16.00
2023-05-22T19:34:03.120Z,15.90
2023-05-22T19:39:06.034Z,15.80
2023-05-22T19:44:09.160Z,15.80
2023-05-22T19:49:12.194Z,15.70
2023-05-22T19:54:15.835Z,15.50
2023-05-22T19:59:18.776Z,15.50
2023-05-22T20:04:21.784Z,15.30
2023-05-22T20:09:25.053Z,15.30
2023-05-22T20:14:28.095Z,15.30
2023-05-22T20:19:32.828Z,15.30
2023-05-22T20:24:37.447Z,15.20
2023-05-22T20:29:40.315Z,15.10
2023-05-22T20:34:43.138Z,15.10
2023-05-22T20:39:46.673Z,15.10
2023-05-22T20:44:49.559Z,15.00
2023-05-22T20:49:52.338Z,14.90
2023-05-22T20:54:55.239Z,15.00
2023-05-22T20:59:58.656Z,15.00
2023-05-22T21:05:01.626Z,15.00
2023-05-22T21:10:04.811Z,14.90
2023-05-22T21:15:08.194Z,15.00
2023-05-22T21:20:11.396Z,14.90
2023-05-22T21:25:14.550Z,14.80
2023-05-22T21:30:17.668Z,14.80
2023-05-22T21:35:20.432Z,14.80
2023-05-22T21:40:23.260Z,14.70
2023-05-22T21:45:26.159Z,14.70
2023-05-22T21:50:29.750Z,14.70
2023-05-22T21:55:32.690Z,14.60
2023-05-22T22:00:35.911Z,14.30
2023-05-22T22:05:38.820Z,14.20
2023-05-22T22:10:41.710Z,13.80
2023-05-22T22:15:49.277Z,13.50
2023-05-22T22:20:54.411Z,13.20
2023-05-22T22:25:57.253Z,12.90
2023-05-22T22:31:01.638Z,12.90
2023-05-22T22:36:04.689Z,12.90
2023-05-22T22:41:09.572Z,12.90
2023-05-22T22:46:12.400Z,12.70
2023-05-22T22:51:15.154Z,12.20
2023-05-22T22:56:18.067Z,11.90
2023-05-22T23:01:20.953Z,11.90
2023-05-22T23:06:24.206Z,11.90
2023-05-22T23:11:28.363Z,12.40
2023-05-22T23:16:31.430Z,12.60
2023-05-22T23:21:35.602Z,12.70
2023-05-22T23:26:38.292Z,12.70
2023-05-22T23:31:41.365Z,12.30
2023-05-22T23:36:44.251Z,11.90
2023-05-22T23:41:47.031Z,11.50
2023-05-22T23:46:50.331Z,11.40
2023-05-22T23:51:53.133Z,11.10
2023-05-22T23:56:55.774Z,11.00
